createdAt,value
2018-11-03T07:10:16.671Z,99.90
2018-11-03T07:12:44.238Z,99.90
2018-11-03T07:15:12.106Z,99.90
2018-11-03T07:17:40.314Z,99.90
2018-11-03T07:20:09.769Z,99.90
2018-11-03T07:22:37.228Z,99.90
2018-11-03T07:25:05.450Z,99.90
2018-11-03T07:27:32.915Z,99.90
2018-11-03T07:30:00.369Z,99.90
2018-11-03T07:32:27.812Z,99.90
2018-11-03T07:34:55.291Z,99.90
2018-11-03T07:37:22.802Z,99.90
2018-11-03T07:39:50.274Z,99.90
2018-11-03T07:42:18.149Z,99.90
2018-11-03T07:44:45.842Z,99.90
2018-11-03T07:47:13.316Z,99.50
2018-11-03T07:49:40.795Z,99.30
2018-11-03T07:52:08.287Z,99.50
2018-11-03T07:54:35.801Z,99.80
2018-11-03T07:57:03.282Z,99.70
2018-11-03T07:59:30.779Z,99.10
2018-11-03T08:01:58.294Z,99.60
2018-11-03T08:04:25.763Z,99.40
2018-11-03T08:06:53.217Z,99.20
2018-11-03T08:09:20.680Z,99.10
2018-11-03T08:11:48.177Z,99.30
2018-11-03T08:14:15.668Z,98.80
2018-11-03T08:16:43.102Z,98.50
2018-11-03T08:19:10.587Z,97.50
2018-11-03T08:21:38.072Z,97.80
2018-11-03T08:24:05.655Z,97.30
2018-11-03T08:26:33.065Z,97.50
2018-11-03T08:29:00.572Z,97.50
2018-11-03T08:31:28.098Z,97.90
2018-11-03T08:33:55.486Z,97.90
2018-11-03T08:36:22.945Z,97.80
2018-11-03T08:38:50.441Z,97.40
2018-11-03T08:41:17.908Z,97.40
2018-11-03T08:43:45.621Z,97.50
2018-11-03T08:46:13.292Z,97.20
2018-11-03T08:48:40.825Z,96.90
2018-11-03T08:51:08.400Z,96.50
2018-11-03T08:53:35.911Z,96.50
2018-11-03T08:56:03.414Z,96.10
2018-11-03T08:58:31.136Z,95.70
2018-11-03T09:00:59.034Z,95.50
2018-11-03T09:03:26.687Z,95.30
2018-11-03T09:05:55.034Z,94.80
2018-11-03T09:08:22.496Z,94.10
2018-11-03T09:10:49.993Z,94.50
2018-11-03T09:13:17.464Z,94.40
2018-11-03T09:15:44.969Z,94.30
2018-11-03T09:18:12.450Z,93.90
2018-11-03T09:20:39.950Z,93.40
2018-11-03T09:23:07.397Z,94.00
2018-11-03T09:25:34.890Z,93.00
2018-11-03T09:28:02.389Z,92.80
2018-11-03T09:30:29.872Z,92.50
2018-11-03T09:32:57.347Z,88.70
2018-11-03T09:35:24.807Z,83.20
2018-11-03T09:37:52.295Z,82.00
2018-11-03T09:40:19.779Z,82.20
2018-11-03T09:42:47.966Z,82.20
2018-11-03T09:45:15.440Z,80.70
2018-11-03T09:47:43.280Z,82.20
2018-11-03T09:50:12.213Z,81.80
2018-11-03T09:52:40.455Z,79.60
2018-11-03T09:55:09.926Z,78.30
2018-11-03T09:57:44.373Z,72.70
2018-11-03T10:00:22.313Z,70.40
2018-11-03T10:03:54.046Z,69.90
2018-11-03T10:06:30.944Z,71.40
2018-11-03T10:09:08.237Z,70.60
2018-11-03T10:11:45.191Z,69.50
2018-11-03T10:20:58.715Z,71.10
2018-11-03T10:23:26.152Z,75.10
2018-11-03T10:25:53.673Z,76.50
2018-11-03T10:28:21.603Z,76.60
2018-11-03T10:30:49.070Z,74.10
2018-11-03T10:33:16.547Z,71.30
2018-11-03T10:35:44.358Z,69.10
2018-11-03T10:38:11.791Z,65.70
2018-11-03T10:40:39.268Z,64.70
2018-11-03T10:43:06.733Z,66.50
2018-11-03T10:45:34.270Z,68.80
2018-11-03T10:48:01.832Z,67.50
2018-11-03T10:50:29.322Z,70.70
2018-11-03T10:52:56.958Z,70.80
2018-11-03T10:55:24.441Z,69.00
2018-11-03T10:57:51.928Z,70.80
2018-11-03T11:00:25.610Z,71.20
2018-11-03T11:02:59.265Z,71.30
2018-11-03T11:05:32.803Z,70.20
2018-11-03T11:08:06.036Z,70.10
2018-11-03T11:10:39.188Z,70.30
2018-11-03T11:13:10.290Z,70.00
2018-11-03T11:15:37.777Z,69.80
2018-11-03T11:18:05.402Z,68.10
2018-11-03T11:20:32.914Z,67.70
2018-11-03T11:23:00.364Z,67.30
2018-11-03T11:25:28.041Z,66.70
2018-11-03T11:27:55.664Z,66.30
2018-11-03T11:30:23.202Z,66.70
2018-11-03T11:32:51.162Z,66.40
2018-11-03T11:35:18.582Z,66.00
2018-11-03T11:37:46.143Z,63.50
2018-11-03T11:40:13.693Z,61.70
2018-11-03T11:42:41.135Z,59.60
2018-11-03T11:45:08.590Z,60.90
2018-11-03T11:47:36.067Z,61.50
2018-11-03T11:50:03.907Z,62.50
2018-11-03T11:52:31.428Z,60.60
2018-11-03T11:54:58.969Z,59.50
2018-11-03T11:57:26.754Z,57.90
2018-11-03T11:59:54.229Z,57.80
2018-11-03T12:02:21.749Z,58.30
2018-11-03T12:04:49.194Z,58.70
2018-11-03T12:07:16.704Z,58.70
2018-11-03T12:09:44.837Z,60.30
2018-11-03T12:12:13.284Z,61.70
2018-11-03T12:14:40.802Z,63.80
2018-11-03T12:17:08.299Z,65.10
2018-11-03T12:19:35.811Z,66.50
2018-11-03T12:22:03.352Z,66.80
2018-11-03T12:24:31.015Z,64.60
2018-11-03T12:26:58.498Z,65.30
2018-11-03T12:29:25.980Z,64.30
2018-11-03T12:31:53.440Z,64.40
2018-11-03T12:34:20.983Z,65.40
2018-11-03T12:36:48.492Z,65.30
2018-11-03T12:39:15.979Z,64.00
2018-11-03T12:41:43.542Z,64.00
2018-11-03T12:44:11.020Z,65.00
2018-11-03T12:46:38.486Z,66.40
2018-11-03T12:49:05.945Z,65.50
2018-11-03T12:51:33.608Z,66.10
2018-11-03T12:54:01.093Z,66.50
2018-11-03T12:56:28.591Z,65.80
2018-11-03T12:58:56.093Z,66.00
2018-11-03T13:01:23.575Z,66.70
2018-11-03T13:03:51.026Z,65.60
2018-11-03T13:06:19.156Z,64.40
2018-11-03T13:08:46.661Z,62.80
2018-11-03T13:11:14.413Z,62.60
2018-11-03T13:13:41.920Z,62.30
2018-11-03T13:16:09.399Z,61.90
2018-11-03T13:18:36.910Z,61.40
2018-11-03T13:21:04.405Z,61.90
2018-11-03T13:23:31.929Z,62.30
2018-11-03T13:25:59.411Z,62.90
2018-11-03T13:28:26.882Z,63.20
2018-11-03T13:30:54.336Z,63.10
2018-11-03T13:33:21.814Z,62.00
2018-11-03T13:35:49.297Z,62.10
2018-11-03T13:38:16.773Z,59.90
2018-11-03T13:40:44.331Z,60.80
2018-11-03T13:43:11.799Z,59.50
2018-11-03T13:45:39.249Z,59.50
2018-11-03T13:48:06.713Z,57.90
2018-11-03T13:50:34.184Z,56.70
2018-11-03T13:53:01.705Z,55.60
2018-11-03T13:55:29.168Z,56.40
2018-11-03T13:57:56.626Z,56.80
2018-11-03T14:00:24.107Z,57.10
2018-11-03T14:02:51.601Z,58.40
2018-11-03T14:05:19.104Z,58.60
2018-11-03T14:07:46.800Z,60.70
2018-11-03T14:10:15.387Z,62.00
2018-11-03T14:12:43.956Z,62.30
2018-11-03T14:15:13.471Z,60.60
2018-11-03T14:17:40.930Z,60.30
2018-11-03T14:20:09.984Z,60.30
2018-11-03T14:22:37.691Z,61.50
2018-11-03T14:25:06.693Z,61.60
2018-11-03T14:27:34.200Z,62.60
2018-11-03T14:30:01.677Z,62.40
2018-11-03T14:32:29.257Z,61.00
2018-11-03T14:34:57.219Z,62.90
2018-11-03T14:37:24.692Z,63.90
2018-11-03T14:39:52.217Z,64.50
2018-11-03T14:42:19.740Z,66.50
2018-11-03T14:44:47.271Z,65.30
2018-11-03T14:47:14.677Z,66.70
2018-11-03T14:49:42.609Z,67.10
2018-11-03T14:52:10.203Z,68.00
2018-11-03T14:54:37.903Z,68.70
2018-11-03T14:57:05.452Z,68.80
2018-11-03T14:59:33.304Z,69.40
2018-11-03T15:02:00.811Z,69.30
2018-11-03T15:04:28.328Z,71.00
2018-11-03T15:06:55.763Z,69.60
2018-11-03T15:09:23.275Z,70.70
2018-11-03T15:11:51.624Z,71.90
2018-11-03T15:14:19.296Z,71.80
2018-11-03T15:16:46.696Z,71.30
2018-11-03T15:19:14.172Z,73.40
2018-11-03T15:21:41.839Z,72.80
2018-11-03T15:24:09.502Z,73.80
2018-11-03T15:26:37.839Z,72.90
2018-11-03T15:29:05.339Z,73.50
2018-11-03T15:31:32.824Z,74.00
2018-11-03T15:34:01.117Z,74.90
2018-11-03T15:36:28.569Z,75.00
2018-11-03T15:38:56.088Z,75.50
2018-11-03T15:41:23.713Z,74.60
2018-11-03T15:43:51.265Z,77.20
2018-11-03T15:46:18.724Z,76.90
2018-11-03T15:48:46.442Z,78.30
2018-11-03T15:51:13.905Z,79.20
2018-11-03T15:56:06.586Z,80.80
2018-11-03T15:59:17.548Z,80.50
2018-11-03T16:01:45.562Z,81.50
2018-11-03T16:04:14.151Z,82.70
2018-11-03T16:06:42.896Z,83.40
2018-11-03T16:09:11.989Z,84.30
2018-11-03T16:11:40.883Z,83.90
2018-11-03T16:14:20.781Z,82.50
2018-11-03T16:16:49.045Z,81.50
2018-11-03T16:19:16.554Z,82.10
2018-11-03T16:21:44.024Z,82.40
2018-11-03T16:24:11.530Z,83.00
2018-11-03T16:26:39.030Z,85.70
2018-11-03T16:29:06.504Z,83.60
2018-11-03T16:31:34.283Z,85.10
2018-11-03T16:34:01.778Z,85.70
2018-11-03T16:36:29.243Z,86.10
2018-11-03T16:38:57.008Z,86.10
2018-11-03T16:41:24.460Z,85.80
2018-11-03T16:43:51.936Z,85.00
2018-11-03T16:46:19.406Z,84.60
2018-11-03T16:48:47.059Z,85.10
2018-11-03T16:51:14.548Z,85.50
2018-11-03T16:53:42.054Z,87.40
2018-11-03T16:56:09.538Z,86.70
2018-11-03T16:58:37.084Z,87.30
2018-11-03T17:01:04.537Z,87.20
2018-11-03T17:03:32.017Z,87.50
2018-11-03T17:05:59.486Z,87.30
2018-11-03T17:08:26.938Z,87.90
2018-11-03T17:10:54.387Z,88.30
2018-11-03T17:47:09.056Z,99.90
2018-11-03T18:31:24.262Z,99.90
2018-11-03T19:42:41.837Z,99.90
2018-11-03T21:43:09.034Z,99.90
2018-11-03T22:00:21.098Z,99.90
2018-11-03T22:24:56.708Z,99.90
2018-11-03T22:32:19.139Z,99.90
2018-11-03T23:09:11.221Z,99.90
2018-11-03T23:16:33.481Z,99.90
